sensor_id;sensor_type;location;lat;lon;timestamp;pressure;altitude;pressure_sealevel;temperature;humidity
50166;BME280;36071;48.140;11.516;2023-04-16T00:00:53;95310.0;;;5.6;88.0
50166;BME280;36071;48.140;11.516;2023-04-16T00:05:53;95310.0;;;5.5;87.5
50166;BME280;36071;48.140;11.516;2023-04-16T00:10:54;95310.0;;;5.5;88.6
50166;BME280;36071;48.140;11.516;2023-04-16T00:15:53;95320.0;;;5.5;88.0
50166;BME280;36071;48.140;11.516;2023-04-16T00:20:53;95310.0;;;5.6;87.1
50166;BME280;36071;48.140;11.516;2023-04-16T00:25:53;95310.0;;;5.6;87.6
50166;BME280;36071;48.140;11.516;2023-04-16T00:30:53;95310.0;;;5.4;88.3
50166;BME280;36071;48.140;11.516;2023-04-16T00:35:53;95300.0;;;5.5;87.7
50166;BME280;36071;48.140;11.516;2023-04-16T00:40:53;95300.0;;;5.5;87.9
50166;BME280;36071;48.140;11.516;2023-04-16T00:45:54;95300.0;;;5.4;88.0
50166;BME280;36071;48.140;11.516;2023-04-16T00:50:53;95300.0;;;5.5;87.7
50166;BME280;36071;48.140;11.516;2023-04-16T00:55:53;95310.0;;;5.5;87.6
50166;BME280;36071;48.140;11.516;2023-04-16T01:00:53;95300.0;;;5.4;88.2
50166;BME280;36071;48.140;11.516;2023-04-16T01:05:53;95300.0;;;5.5;88.4
50166;BME280;36071;48.140;11.516;2023-04-16T01:10:53;95310.0;;;5.5;88.5
50166;BME280;36071;48.140;11.516;2023-04-16T01:15:53;95300.0;;;5.4;88.3
50166;BME280;36071;48.140;11.516;2023-04-16T01:20:53;95310.0;;;5.5;87.7
50166;BME280;36071;48.140;11.516;2023-04-16T01:25:53;95310.0;;;5.3;89.6
50166;BME280;36071;48.140;11.516;2023-04-16T01:30:53;95320.0;;;5.4;88.7
50166;BME280;36071;48.140;11.516;2023-04-16T01:35:53;95320.0;;;5.4;88.8
50166;BME280;36071;48.140;11.516;2023-04-16T01:40:54;95320.0;;;5.5;88.9
50166;BME280;36071;48.140;11.516;2023-04-16T01:46:12;95330.0;;;5.5;88.2
50166;BME280;36071;48.140;11.516;2023-04-16T01:50:55;95330.0;;;5.4;88.9
50166;BME280;36071;48.140;11.516;2023-04-16T01:55:53;95330.0;;;5.3;89.8
50166;BME280;36071;48.140;11.516;2023-04-16T02:00:53;95330.0;;;5.3;89.4
50166;BME280;36071;48.140;11.516;2023-04-16T02:05:54;95330.0;;;5.4;89.9
50166;BME280;36071;48.140;11.516;2023-04-16T02:10:54;95330.0;;;5.5;89.0
50166;BME280;36071;48.140;11.516;2023-04-16T02:15:53;95330.0;;;5.5;88.9
50166;BME280;36071;48.140;11.516;2023-04-16T02:20:53;95330.0;;;5.4;89.4
50166;BME280;36071;48.140;11.516;2023-04-16T02:25:53;95330.0;;;5.3;89.6
50166;BME280;36071;48.140;11.516;2023-04-16T02:30:53;95330.0;;;5.3;90.4
50166;BME280;36071;48.140;11.516;2023-04-16T02:35:53;95330.0;;;5.5;89.0
50166;BME280;36071;48.140;11.516;2023-04-16T02:40:55;95330.0;;;5.4;89.1
50166;BME280;36071;48.140;11.516;2023-04-16T02:45:53;95330.0;;;5.3;90.4
50166;BME280;36071;48.140;11.516;2023-04-16T02:50:53;95340.0;;;5.3;90.6
50166;BME280;36071;48.140;11.516;2023-04-16T02:55:54;95330.0;;;5.3;90.0
50166;BME280;36071;48.140;11.516;2023-04-16T03:00:54;95340.0;;;5.3;90.2
50166;BME280;36071;48.140;11.516;2023-04-16T03:05:54;95350.0;;;5.3;91.0
50166;BME280;36071;48.140;11.516;2023-04-16T03:10:53;95350.0;;;5.3;90.9
50166;BME280;36071;48.140;11.516;2023-04-16T03:15:53;95350.0;;;5.3;90.0
50166;BME280;36071;48.140;11.516;2023-04-16T03:20:53;95350.0;;;5.3;90.1
50166;BME280;36071;48.140;11.516;2023-04-16T03:25:53;95360.0;;;5.4;89.4
50166;BME280;36071;48.140;11.516;2023-04-16T03:30:53;95360.0;;;5.4;88.4
50166;BME280;36071;48.140;11.516;2023-04-16T03:35:54;95360.0;;;5.4;88.3
50166;BME280;36071;48.140;11.516;2023-04-16T03:40:53;95360.0;;;5.4;89.2
50166;BME280;36071;48.140;11.516;2023-04-16T03:45:53;95370.0;;;5.5;88.8
50166;BME280;36071;48.140;11.516;2023-04-16T03:50:53;95310.0;;;5.1;88.7
50166;BME280;36071;48.140;11.516;2023-04-16T03:55:53;95370.0;;;5.4;88.4
50166;BME280;36071;48.140;11.516;2023-04-16T04:00:53;95370.0;;;5.4;88.8
50166;BME280;36071;48.140;11.516;2023-04-16T04:05:53;95370.0;;;5.5;89.5
50166;BME280;36071;48.140;11.516;2023-04-16T04:10:53;95380.0;;;5.5;89.6
50166;BME280;36071;48.140;11.516;2023-04-16T04:15:53;95390.0;;;5.4;90.2
50166;BME280;36071;48.140;11.516;2023-04-16T04:20:53;95380.0;;;5.3;90.2
50166;BME280;36071;48.140;11.516;2023-04-16T04:25:53;95390.0;;;5.3;91.0
50166;BME280;36071;48.140;11.516;2023-04-16T04:30:53;95390.0;;;5.4;90.5
50166;BME280;36071;48.140;11.516;2023-04-16T04:35:53;95390.0;;;5.3;90.8
50166;BME280;36071;48.140;11.516;2023-04-16T04:40:53;95330.0;;;4.9;91.6
50166;BME280;36071;48.140;11.516;2023-04-16T04:45:53;95400.0;;;5.3;92.0
50166;BME280;36071;48.140;11.516;2023-04-16T04:50:53;95390.0;;;5.2;92.7
50166;BME280;36071;48.140;11.516;2023-04-16T04:55:53;95410.0;;;5.2;93.4
50166;BME280;36071;48.140;11.516;2023-04-16T05:00:53;95420.0;;;5.2;93.9
50166;BME280;36071;48.140;11.516;2023-04-16T05:05:53;95410.0;;;5.2;93.3
50166;BME280;36071;48.140;11.516;2023-04-16T05:10:53;95420.0;;;5.2;93.1
50166;BME280;36071;48.140;11.516;2023-04-16T05:15:53;95410.0;;;5.3;94.2
50166;BME280;36071;48.140;11.516;2023-04-16T05:20:53;95430.0;;;5.3;93.1
50166;BME280;36071;48.140;11.516;2023-04-16T05:25:53;95430.0;;;5.3;93.3
50166;BME280;36071;48.140;11.516;2023-04-16T05:30:53;95440.0;;;5.3;93.6
50166;BME280;36071;48.140;11.516;2023-04-16T05:40:54;95440.0;;;5.3;92.1
50166;BME280;36071;48.140;11.516;2023-04-16T05:45:53;95450.0;;;5.3;92.4
50166;BME280;36071;48.140;11.516;2023-04-16T05:50:53;95460.0;;;5.3;92.2
50166;BME280;36071;48.140;11.516;2023-04-16T05:55:54;95450.0;;;5.2;92.6
50166;BME280;36071;48.140;11.516;2023-04-16T06:00:53;95460.0;;;5.2;91.5
50166;BME280;36071;48.140;11.516;2023-04-16T06:05:53;95450.0;;;5.3;92.2
50166;BME280;36071;48.140;11.516;2023-04-16T06:10:53;95460.0;;;5.3;91.9
50166;BME280;36071;48.140;11.516;2023-04-16T06:15:53;95460.0;;;5.4;90.5
50166;BME280;36071;48.140;11.516;2023-04-16T06:20:53;95460.0;;;5.4;91.2
50166;BME280;36071;48.140;11.516;2023-04-16T06:25:54;95470.0;;;5.5;90.7
50166;BME280;36071;48.140;11.516;2023-04-16T06:30:53;95470.0;;;5.6;89.7
50166;BME280;36071;48.140;11.516;2023-04-16T06:35:53;95470.0;;;5.6;89.6
50166;BME280;36071;48.140;11.516;2023-04-16T06:40:53;95460.0;;;5.7;89.4
50166;BME280;36071;48.140;11.516;2023-04-16T06:45:53;95470.0;;;5.8;88.0
50166;BME280;36071;48.140;11.516;2023-04-16T06:50:53;95480.0;;;5.9;89.4
50166;BME280;36071;48.140;11.516;2023-04-16T06:55:55;95490.0;;;5.8;88.9
50166;BME280;36071;48.140;11.516;2023-04-16T07:00:53;95490.0;;;5.8;88.0
50166;BME280;36071;48.140;11.516;2023-04-16T07:05:53;95490.0;;;5.9;88.0
50166;BME280;36071;48.140;11.516;2023-04-16T07:10:53;95490.0;;;5.9;89.1
50166;BME280;36071;48.140;11.516;2023-04-16T07:15:53;95500.0;;;5.9;88.2
50166;BME280;36071;48.140;11.516;2023-04-16T07:20:53;95490.0;;;5.9;88.2
50166;BME280;36071;48.140;11.516;2023-04-16T07:25:53;95490.0;;;5.8;88.2
50166;BME280;36071;48.140;11.516;2023-04-16T07:30:53;95500.0;;;5.9;89.2
50166;BME280;36071;48.140;11.516;2023-04-16T07:35:54;95500.0;;;5.9;87.7
50166;BME280;36071;48.140;11.516;2023-04-16T07:41:08;95520.0;;;5.9;88.2
50166;BME280;36071;48.140;11.516;2023-04-16T07:45:53;95510.0;;;5.8;87.2
50166;BME280;36071;48.140;11.516;2023-04-16T07:50:53;95520.0;;;5.8;88.9
50166;BME280;36071;48.140;11.516;2023-04-16T07:55:53;95510.0;;;6.0;88.4
50166;BME280;36071;48.140;11.516;2023-04-16T08:00:54;95530.0;;;5.9;88.5
50166;BME280;36071;48.140;11.516;2023-04-16T08:05:53;95520.0;;;6.0;88.0
50166;BME280;36071;48.140;11.516;2023-04-16T08:10:53;95530.0;;;6.1;86.3
50166;BME280;36071;48.140;11.516;2023-04-16T08:15:53;95520.0;;;6.2;85.6
50166;BME280;36071;48.140;11.516;2023-04-16T08:20:53;95530.0;;;6.4;86.2
50166;BME280;36071;48.140;11.516;2023-04-16T08:25:53;95520.0;;;6.6;85.7
50166;BME280;36071;48.140;11.516;2023-04-16T08:30:54;95530.0;;;6.6;83.5
50166;BME280;36071;48.140;11.516;2023-04-16T08:35:53;95530.0;;;6.7;82.5
50166;BME280;36071;48.140;11.516;2023-04-16T08:40:53;95540.0;;;6.9;83.1
50166;BME280;36071;48.140;11.516;2023-04-16T08:45:53;95540.0;;;7.1;82.6
50166;BME280;36071;48.140;11.516;2023-04-16T08:50:53;95540.0;;;7.2;81.4
50166;BME280;36071;48.140;11.516;2023-04-16T08:55:53;95550.0;;;7.4;79.8
50166;BME280;36071;48.140;11.516;2023-04-16T09:00:53;95540.0;;;7.5;79.6
50166;BME280;36071;48.140;11.516;2023-04-16T09:05:53;95540.0;;;7.8;78.9
50166;BME280;36071;48.140;11.516;2023-04-16T09:10:54;95550.0;;;7.7;75.7
50166;BME280;36071;48.140;11.516;2023-04-16T09:15:53;95550.0;;;7.8;75.5
50166;BME280;36071;48.140;11.516;2023-04-16T09:20:53;95560.0;;;7.8;75.7
50166;BME280;36071;48.140;11.516;2023-04-16T09:25:53;95550.0;;;8.0;74.2
50166;BME280;36071;48.140;11.516;2023-04-16T09:31:06;95560.0;;;8.1;73.9
50166;BME280;36071;48.140;11.516;2023-04-16T09:35:53;95550.0;;;8.1;75.6
50166;BME280;36071;48.140;11.516;2023-04-16T09:41:04;95550.0;;;8.1;75.3
50166;BME280;36071;48.140;11.516;2023-04-16T09:45:53;95560.0;;;8.0;75.2
50166;BME280;36071;48.140;11.516;2023-04-16T09:50:53;95560.0;;;8.0;74.6
50166;BME280;36071;48.140;11.516;2023-04-16T09:55:54;95560.0;;;8.0;73.8
50166;BME280;36071;48.140;11.516;2023-04-16T10:00:54;95560.0;;;8.1;74.0
50166;BME280;36071;48.140;11.516;2023-04-16T10:05:53;95580.0;;;8.1;74.5
50166;BME280;36071;48.140;11.516;2023-04-16T10:10:53;95570.0;;;8.2;73.4
50166;BME280;36071;48.140;11.516;2023-04-16T10:15:54;95570.0;;;8.2;73.0
50166;BME280;36071;48.140;11.516;2023-04-16T10:20:54;95580.0;;;8.1;73.1
50166;BME280;36071;48.140;11.516;2023-04-16T10:25:53;95580.0;;;8.0;73.6
50166;BME280;36071;48.140;11.516;2023-04-16T10:30:54;95580.0;;;8.1;73.4
50166;BME280;36071;48.140;11.516;2023-04-16T10:36:06;95580.0;;;8.2;71.8
50166;BME280;36071;48.140;11.516;2023-04-16T10:40:57;95580.0;;;8.2;71.7
50166;BME280;36071;48.140;11.516;2023-04-16T10:45:53;95580.0;;;8.2;72.5
50166;BME280;36071;48.140;11.516;2023-04-16T10:50:54;95570.0;;;8.3;71.5
50166;BME280;36071;48.140;11.516;2023-04-16T10:55:55;95580.0;;;8.5;72.2
50166;BME280;36071;48.140;11.516;2023-04-16T11:00:53;95570.0;;;8.6;70.0
50166;BME280;36071;48.140;11.516;2023-04-16T11:05:53;95580.0;;;8.7;70.2
50166;BME280;36071;48.140;11.516;2023-04-16T11:10:53;95580.0;;;8.8;69.3
50166;BME280;36071;48.140;11.516;2023-04-16T11:15:55;95590.0;;;8.8;68.9
50166;BME280;36071;48.140;11.516;2023-04-16T11:20:53;95590.0;;;8.9;67.8
50166;BME280;36071;48.140;11.516;2023-04-16T11:25:53;95590.0;;;8.9;68.3
50166;BME280;36071;48.140;11.516;2023-04-16T11:30:53;95590.0;;;8.8;68.2
50166;BME280;36071;48.140;11.516;2023-04-16T11:35:55;95600.0;;;8.8;68.8
50166;BME280;36071;48.140;11.516;2023-04-16T11:40:53;95600.0;;;8.6;69.6
50166;BME280;36071;48.140;11.516;2023-04-16T11:45:55;95590.0;;;8.7;70.1
50166;BME280;36071;48.140;11.516;2023-04-16T11:50:54;95600.0;;;8.7;70.0
50166;BME280;36071;48.140;11.516;2023-04-16T11:55:53;95600.0;;;8.8;70.2
50166;BME280;36071;48.140;11.516;2023-04-16T12:00:53;95600.0;;;8.9;69.6
50166;BME280;36071;48.140;11.516;2023-04-16T12:05:53;95600.0;;;8.9;69.2
50166;BME280;36071;48.140;11.516;2023-04-16T12:10:54;95600.0;;;8.9;69.4
50166;BME280;36071;48.140;11.516;2023-04-16T12:15:54;95610.0;;;8.8;69.7
50166;BME280;36071;48.140;11.516;2023-04-16T12:20:53;95610.0;;;8.6;69.9
50166;BME280;36071;48.140;11.516;2023-04-16T12:25:54;95600.0;;;8.6;70.2
50166;BME280;36071;48.140;11.516;2023-04-16T12:30:53;95610.0;;;8.6;70.9
50166;BME280;36071;48.140;11.516;2023-04-16T12:35:53;95610.0;;;8.6;71.8
50166;BME280;36071;48.140;11.516;2023-04-16T12:40:54;95610.0;;;8.7;71.5
50166;BME280;36071;48.140;11.516;2023-04-16T12:45:53;95610.0;;;8.6;71.8
50166;BME280;36071;48.140;11.516;2023-04-16T12:50:53;95620.0;;;8.6;72.0
50166;BME280;36071;48.140;11.516;2023-04-16T12:55:53;95630.0;;;8.5;72.4
50166;BME280;36071;48.140;11.516;2023-04-16T13:00:53;95620.0;;;8.5;73.1
50166;BME280;36071;48.140;11.516;2023-04-16T13:05:53;95610.0;;;8.5;73.4
50166;BME280;36071;48.140;11.516;2023-04-16T13:10:53;95620.0;;;8.4;74.4
50166;BME280;36071;48.140;11.516;2023-04-16T13:15:53;95560.0;;;8.2;74.8
50166;BME280;36071;48.140;11.516;2023-04-16T13:20:55;95620.0;;;8.5;74.6
50166;BME280;36071;48.140;11.516;2023-04-16T13:25:53;95620.0;;;8.5;74.8
50166;BME280;36071;48.140;11.516;2023-04-16T13:30:53;95620.0;;;8.5;75.1
50166;BME280;36071;48.140;11.516;2023-04-16T13:35:54;95620.0;;;8.5;74.5
50166;BME280;36071;48.140;11.516;2023-04-16T13:40:53;95630.0;;;8.4;74.5
50166;BME280;36071;48.140;11.516;2023-04-16T13:45:54;95630.0;;;8.4;74.9
50166;BME280;36071;48.140;11.516;2023-04-16T13:50:53;95630.0;;;8.5;74.2
50166;BME280;36071;48.140;11.516;2023-04-16T13:55:53;95630.0;;;8.4;74.4
50166;BME280;36071;48.140;11.516;2023-04-16T14:00:55;95640.0;;;8.4;74.5
50166;BME280;36071;48.140;11.516;2023-04-16T14:05:53;95630.0;;;8.4;74.6
50166;BME280;36071;48.140;11.516;2023-04-16T14:10:54;95640.0;;;8.4;75.1
50166;BME280;36071;48.140;11.516;2023-04-16T14:15:53;95630.0;;;8.4;75.2
50166;BME280;36071;48.140;11.516;2023-04-16T14:20:53;95640.0;;;8.4;75.8
50166;BME280;36071;48.140;11.516;2023-04-16T14:25:53;95630.0;;;8.5;75.8
50166;BME280;36071;48.140;11.516;2023-04-16T14:30:53;95640.0;;;8.5;76.0
50166;BME280;36071;48.140;11.516;2023-04-16T14:35:53;95630.0;;;8.4;76.3
50166;BME280;36071;48.140;11.516;2023-04-16T14:40:54;95640.0;;;8.4;76.2
50166;BME280;36071;48.140;11.516;2023-04-16T14:45:54;95640.0;;;8.4;76.7
50166;BME280;36071;48.140;11.516;2023-04-16T14:50:53;95640.0;;;8.5;76.4
50166;BME280;36071;48.140;11.516;2023-04-16T14:55:53;95640.0;;;8.5;76.9
50166;BME280;36071;48.140;11.516;2023-04-16T15:00:53;95640.0;;;8.6;76.8
50166;BME280;36071;48.140;11.516;2023-04-16T15:05:55;95640.0;;;8.6;76.1
50166;BME280;36071;48.140;11.516;2023-04-16T15:10:53;95650.0;;;8.5;76.5
50166;BME280;36071;48.140;11.516;2023-04-16T15:20:53;95650.0;;;8.3;77.3
50166;BME280;36071;48.140;11.516;2023-04-16T15:25:53;95640.0;;;8.4;77.8
50166;BME280;36071;48.140;11.516;2023-04-16T15:30:53;95650.0;;;8.4;78.1
50166;BME280;36071;48.140;11.516;2023-04-16T15:35:53;95650.0;;;8.5;77.7
50166;BME280;36071;48.140;11.516;2023-04-16T15:40:53;95650.0;;;8.5;76.7
50166;BME280;36071;48.140;11.516;2023-04-16T15:45:53;95650.0;;;8.4;76.9
50166;BME280;36071;48.140;11.516;2023-04-16T15:50:53;95650.0;;;8.5;76.8
50166;BME280;36071;48.140;11.516;2023-04-16T15:55:53;95660.0;;;8.5;76.3
50166;BME280;36071;48.140;11.516;2023-04-16T16:00:53;95660.0;;;8.4;76.2
50166;BME280;36071;48.140;11.516;2023-04-16T16:05:53;95670.0;;;8.4;76.6
50166;BME280;36071;48.140;11.516;2023-04-16T16:10:53;95660.0;;;8.4;76.9
50166;BME280;36071;48.140;11.516;2023-04-16T16:15:54;95670.0;;;8.2;77.5
50166;BME280;36071;48.140;11.516;2023-04-16T16:20:56;95660.0;;;8.2;78.1
50166;BME280;36071;48.140;11.516;2023-04-16T16:25:53;95660.0;;;8.2;78.4
50166;BME280;36071;48.140;11.516;2023-04-16T16:30:53;95670.0;;;8.1;78.6
50166;BME280;36071;48.140;11.516;2023-04-16T16:35:53;95670.0;;;8.1;78.9
50166;BME280;36071;48.140;11.516;2023-04-16T16:40:53;95670.0;;;8.1;79.3
50166;BME280;36071;48.140;11.516;2023-04-16T16:45:53;95660.0;;;8.1;79.7
50166;BME280;36071;48.140;11.516;2023-04-16T16:50:53;95660.0;;;8.0;79.6
50166;BME280;36071;48.140;11.516;2023-04-16T16:55:53;95670.0;;;8.0;79.9
50166;BME280;36071;48.140;11.516;2023-04-16T17:00:53;95660.0;;;7.9;80.7
50166;BME280;36071;48.140;11.516;2023-04-16T17:05:53;95680.0;;;7.9;80.7
50166;BME280;36071;48.140;11.516;2023-04-16T17:10:53;95680.0;;;7.9;80.6
50166;BME280;36071;48.140;11.516;2023-04-16T17:15:53;95680.0;;;7.8;81.2
50166;BME280;36071;48.140;11.516;2023-04-16T17:20:53;95680.0;;;7.8;81.7
50166;BME280;36071;48.140;11.516;2023-04-16T17:25:53;95680.0;;;7.7;81.1
50166;BME280;36071;48.140;11.516;2023-04-16T17:30:54;95690.0;;;7.7;81.5
50166;BME280;36071;48.140;11.516;2023-04-16T17:35:53;95690.0;;;7.7;81.4
50166;BME280;36071;48.140;11.516;2023-04-16T17:40:53;95690.0;;;7.7;81.3
50166;BME280;36071;48.140;11.516;2023-04-16T17:45:53;95700.0;;;7.7;81.7
50166;BME280;36071;48.140;11.516;2023-04-16T17:50:54;95700.0;;;7.7;81.2
50166;BME280;36071;48.140;11.516;2023-04-16T18:05:53;95710.0;;;7.7;81.5
50166;BME280;36071;48.140;11.516;2023-04-16T18:10:53;95720.0;;;7.6;82.0
50166;BME280;36071;48.140;11.516;2023-04-16T18:15:53;95740.0;;;7.6;81.9
50166;BME280;36071;48.140;11.516;2023-04-16T18:20:53;95740.0;;;7.7;81.6
50166;BME280;36071;48.140;11.516;2023-04-16T18:25:55;95740.0;;;7.7;81.5
50166;BME280;36071;48.140;11.516;2023-04-16T18:30:55;95750.0;;;7.7;81.5
50166;BME280;36071;48.140;11.516;2023-04-16T18:35:53;95750.0;;;7.7;81.9
50166;BME280;36071;48.140;11.516;2023-04-16T18:40:53;95760.0;;;7.7;81.7
50166;BME280;36071;48.140;11.516;2023-04-16T18:45:53;95750.0;;;7.7;81.8
50166;BME280;36071;48.140;11.516;2023-04-16T18:50:53;95770.0;;;7.6;82.4
50166;BME280;36071;48.140;11.516;2023-04-16T18:55:53;95770.0;;;7.6;82.1
50166;BME280;36071;48.140;11.516;2023-04-16T19:00:53;95770.0;;;7.6;81.9
50166;BME280;36071;48.140;11.516;2023-04-16T19:05:54;95790.0;;;7.5;82.4
50166;BME280;36071;48.140;11.516;2023-04-16T19:10:53;95780.0;;;7.5;82.5
50166;BME280;36071;48.140;11.516;2023-04-16T19:15:55;95790.0;;;7.5;82.7
50166;BME280;36071;48.140;11.516;2023-04-16T19:20:57;95790.0;;;7.5;82.8
50166;BME280;36071;48.140;11.516;2023-04-16T19:25:53;95800.0;;;7.5;82.7
50166;BME280;36071;48.140;11.516;2023-04-16T19:30:54;95800.0;;;7.6;82.9
50166;BME280;36071;48.140;11.516;2023-04-16T19:35:53;95790.0;;;7.5;82.9
50166;BME280;36071;48.140;11.516;2023-04-16T19:40:54;95800.0;;;7.5;83.3
50166;BME280;36071;48.140;11.516;2023-04-16T19:45:53;95800.0;;;7.5;83.0
50166;BME280;36071;48.140;11.516;2023-04-16T19:55:53;95800.0;;;7.4;84.0
50166;BME280;36071;48.140;11.516;2023-04-16T20:00:53;95810.0;;;7.4;83.7
50166;BME280;36071;48.140;11.516;2023-04-16T20:05:53;95800.0;;;7.4;84.2
50166;BME280;36071;48.140;11.516;2023-04-16T20:10:54;95800.0;;;7.2;85.6
50166;BME280;36071;48.140;11.516;2023-04-16T20:15:53;95810.0;;;7.2;85.5
50166;BME280;36071;48.140;11.516;2023-04-16T20:20:53;95810.0;;;7.2;86.1
50166;BME280;36071;48.140;11.516;2023-04-16T20:25:53;95800.0;;;7.2;86.6
50166;BME280;36071;48.140;11.516;2023-04-16T20:30:53;95790.0;;;7.1;87.0
50166;BME280;36071;48.140;11.516;2023-04-16T20:35:53;95790.0;;;7.0;87.1
50166;BME280;36071;48.140;11.516;2023-04-16T20:40:53;95800.0;;;7.1;87.5
50166;BME280;36071;48.140;11.516;2023-04-16T20:45:53;95800.0;;;7.0;87.4
50166;BME280;36071;48.140;11.516;2023-04-16T20:50:56;95790.0;;;7.0;88.0
50166;BME280;36071;48.140;11.516;2023-04-16T20:55:54;95800.0;;;7.0;87.9
50166;BME280;36071;48.140;11.516;2023-04-16T21:00:54;95790.0;;;7.0;88.1
50166;BME280;36071;48.140;11.516;2023-04-16T21:05:54;95790.0;;;7.0;87.8
50166;BME280;36071;48.140;11.516;2023-04-16T21:10:53;95790.0;;;7.1;87.1
50166;BME280;36071;48.140;11.516;2023-04-16T21:15:53;95780.0;;;7.0;87.3
50166;BME280;36071;48.140;11.516;2023-04-16T21:20:54;95800.0;;;6.9;87.5
50166;BME280;36071;48.140;11.516;2023-04-16T21:30:53;95790.0;;;6.9;88.1
50166;BME280;36071;48.140;11.516;2023-04-16T21:35:54;95800.0;;;6.8;88.1
50166;BME280;36071;48.140;11.516;2023-04-16T21:40:53;95800.0;;;6.9;88.1
50166;BME280;36071;48.140;11.516;2023-04-16T21:45:53;95810.0;;;6.9;87.7
50166;BME280;36071;48.140;11.516;2023-04-16T21:50:54;95800.0;;;6.8;88.4
50166;BME280;36071;48.140;11.516;2023-04-16T21:55:54;95800.0;;;6.7;89.3
50166;BME280;36071;48.140;11.516;2023-04-16T22:00:53;95800.0;;;6.7;88.8
50166;BME280;36071;48.140;11.516;2023-04-16T22:05:57;95800.0;;;6.7;89.0
50166;BME280;36071;48.140;11.516;2023-04-16T22:10:55;95800.0;;;6.7;88.7
50166;BME280;36071;48.140;11.516;2023-04-16T22:15:54;95800.0;;;6.7;88.5
50166;BME280;36071;48.140;11.516;2023-04-16T22:20:54;95790.0;;;6.7;88.4
50166;BME280;36071;48.140;11.516;2023-04-16T22:25:54;95800.0;;;6.6;88.1
50166;BME280;36071;48.140;11.516;2023-04-16T22:30:53;95790.0;;;6.5;89.1
50166;BME280;36071;48.140;11.516;2023-04-16T22:35:53;95790.0;;;6.6;88.5
50166;BME280;36071;48.140;11.516;2023-04-16T22:40:53;95790.0;;;6.5;88.3
50166;BME280;36071;48.140;11.516;2023-04-16T22:45:59;95790.0;;;6.4;88.3
50166;BME280;36071;48.140;11.516;2023-04-16T22:50:53;95790.0;;;6.4;87.7
50166;BME280;36071;48.140;11.516;2023-04-16T22:55:53;95790.0;;;6.5;87.5
50166;BME280;36071;48.140;11.516;2023-04-16T23:00:53;95790.0;;;6.4;87.6
50166;BME280;36071;48.140;11.516;2023-04-16T23:05:53;95780.0;;;6.3;87.3
50166;BME280;36071;48.140;11.516;2023-04-16T23:15:53;95780.0;;;6.3;88.0
50166;BME280;36071;48.140;11.516;2023-04-16T23:20:53;95780.0;;;6.2;87.5
50166;BME280;36071;48.140;11.516;2023-04-16T23:25:53;95780.0;;;6.3;87.3
50166;BME280;36071;48.140;11.516;2023-04-16T23:30:53;95780.0;;;6.2;87.0
50166;BME280;36071;48.140;11.516;2023-04-16T23:35:54;95780.0;;;6.2;86.6
50166;BME280;36071;48.140;11.516;2023-04-16T23:40:53;95780.0;;;6.2;86.0
50166;BME280;36071;48.140;11.516;2023-04-16T23:45:53;95790.0;;;6.1;86.2
50166;BME280;36071;48.140;11.516;2023-04-16T23:50:53;95780.0;;;6.1;86.1
50166;BME280;36071;48.140;11.516;2023-04-16T23:55:58;95780.0;;;6.2;85.5
